Aviation Digital Data Service (ADDS)

Output produced by METARs form (1438 UTC 20 July 2019)
found at http://www.aviationweather.gov/metar/data/
 
METAR text: EDDV 201420Z 19010KT 140V240 CAVOK 28/14 Q1010 TEMPO 28020G40KT 4000 TSRAGR BKN020CB
Conditions at: EDDV (HANNOVER , DE) observed 1420 UTC 20 July 2019
Temperature: 28.0°C (82°F)
Dewpoint: 14.0°C (57°F) [RH = 42%]
Pressure (altimeter): 29.82 inches Hg (1010.0 mb)
Winds: from the S (190 degrees) at 12 MPH (10 knots; 5.1 m/s)
Visibility: 6 or more miles (10+ km)
Ceiling: ceiling and visibility are OK
Clouds: unknown
Weather: no significant weather observed at this time

METAR text: EDDV 201350Z 19009KT 130V230 CAVOK 30/15 Q1010 TEMPO 28020G40KT 4000 TSRAGR BKN020CB
Conditions at: EDDV (HANNOVER , DE) observed 1350 UTC 20 July 2019
Temperature: 30.0°C (86°F)
Dewpoint: 15.0°C (59°F) [RH = 40%]
Pressure (altimeter): 29.82 inches Hg (1010.0 mb)
Winds: from the S (190 degrees) at 10 MPH (9 knots; 4.6 m/s)
Visibility: 6 or more miles (10+ km)
Ceiling: ceiling and visibility are OK
Clouds: unknown
Weather: no significant weather observed at this time

METAR text: EDDV 201320Z 17010KT 130V230 CAVOK 29/14 Q1010 NOSIG
Conditions at: EDDV (HANNOVER , DE) observed 1320 UTC 20 July 2019
Temperature: 29.0°C (84°F)
Dewpoint: 14.0°C (57°F) [RH = 40%]
Pressure (altimeter): 29.82 inches Hg (1010.0 mb)
Winds: from the S (170 degrees) at 12 MPH (10 knots; 5.1 m/s)
Visibility: 6 or more miles (10+ km)
Ceiling: ceiling and visibility are OK
Clouds: unknown
Weather: no significant weather observed at this time

METAR text: EDDV 201250Z 18008KT 130V230 CAVOK 29/15 Q1010 NOSIG
Conditions at: EDDV (HANNOVER , DE) observed 1250 UTC 20 July 2019
Temperature: 29.0°C (84°F)
Dewpoint: 15.0°C (59°F) [RH = 43%]
Pressure (altimeter): 29.82 inches Hg (1010.0 mb)
Winds: from the S (180 degrees) at 9 MPH (8 knots; 4.1 m/s)
Visibility: 6 or more miles (10+ km)
Ceiling: ceiling and visibility are OK
Clouds: unknown
Weather: no significant weather observed at this time

METAR text: EDDV 201220Z 19009KT 120V220 CAVOK 29/15 Q1011 NOSIG
Conditions at: EDDV (HANNOVER , DE) observed 1220 UTC 20 July 2019
Temperature: 29.0°C (84°F)
Dewpoint: 15.0°C (59°F) [RH = 43%]
Pressure (altimeter): 29.85 inches Hg (1011.0 mb)
Winds: from the S (190 degrees) at 10 MPH (9 knots; 4.6 m/s)
Visibility: 6 or more miles (10+ km)
Ceiling: ceiling and visibility are OK
Clouds: unknown
Weather: no significant weather observed at this time

METAR text: EDDV 201150Z 19008KT 120V230 CAVOK 28/14 Q1011 NOSIG
Conditions at: EDDV (HANNOVER , DE) observed 1150 UTC 20 July 2019
Temperature: 28.0°C (82°F)
Dewpoint: 14.0°C (57°F) [RH = 42%]
Pressure (altimeter): 29.85 inches Hg (1011.0 mb)
Winds: from the S (190 degrees) at 9 MPH (8 knots; 4.1 m/s)
Visibility: 6 or more miles (10+ km)
Ceiling: ceiling and visibility are OK
Clouds: unknown
Weather: no significant weather observed at this time

METAR text: EDDV 201120Z 17008KT 130V240 CAVOK 28/14 Q1011 NOSIG
Conditions at: EDDV (HANNOVER , DE) observed 1120 UTC 20 July 2019
Temperature: 28.0°C (82°F)
Dewpoint: 14.0°C (57°F) [RH = 42%]
Pressure (altimeter): 29.85 inches Hg (1011.0 mb)
Winds: from the S (170 degrees) at 9 MPH (8 knots; 4.1 m/s)
Visibility: 6 or more miles (10+ km)
Ceiling: ceiling and visibility are OK
Clouds: unknown
Weather: no significant weather observed at this time

METAR text: EDDV 201050Z 20008KT 140V260 CAVOK 28/13 Q1011 NOSIG
Conditions at: EDDV (HANNOVER , DE) observed 1050 UTC 20 July 2019
Temperature: 28.0°C (82°F)
Dewpoint: 13.0°C (55°F) [RH = 40%]
Pressure (altimeter): 29.85 inches Hg (1011.0 mb)
Winds: from the SSW (200 degrees) at 9 MPH (8 knots; 4.1 m/s)
Visibility: 6 or more miles (10+ km)
Ceiling: ceiling and visibility are OK
Clouds: unknown
Weather: no significant weather observed at this time

METAR text: EDDV 201020Z 22008KT 170V250 CAVOK 28/13 Q1011 NOSIG
Conditions at: EDDV (HANNOVER , DE) observed 1020 UTC 20 July 2019
Temperature: 28.0°C (82°F)
Dewpoint: 13.0°C (55°F) [RH = 40%]
Pressure (altimeter): 29.85 inches Hg (1011.0 mb)
Winds: from the SW (220 degrees) at 9 MPH (8 knots; 4.1 m/s)
Visibility: 6 or more miles (10+ km)
Ceiling: ceiling and visibility are OK
Clouds: unknown
Weather: no significant weather observed at this time

METAR text: EDDV 200950Z 19009KT 140V240 CAVOK 27/14 Q1012 NOSIG
Conditions at: EDDV (HANNOVER , DE) observed 0950 UTC 20 July 2019
Temperature: 27.0°C (81°F)
Dewpoint: 14.0°C (57°F) [RH = 45%]
Pressure (altimeter): 29.88 inches Hg (1012.0 mb)
Winds: from the S (190 degrees) at 10 MPH (9 knots; 4.6 m/s)
Visibility: 6 or more miles (10+ km)
Ceiling: ceiling and visibility are OK
Clouds: unknown
Weather: no significant weather observed at this time

METAR text: EDDV 200920Z 19008KT 120V250 CAVOK 26/14 Q1012 NOSIG
Conditions at: EDDV (HANNOVER , DE) observed 0920 UTC 20 July 2019
Temperature: 26.0°C (79°F)
Dewpoint: 14.0°C (57°F) [RH = 48%]
Pressure (altimeter): 29.88 inches Hg (1012.0 mb)
Winds: from the S (190 degrees) at 9 MPH (8 knots; 4.1 m/s)
Visibility: 6 or more miles (10+ km)
Ceiling: ceiling and visibility are OK
Clouds: unknown
Weather: no significant weather observed at this time

METAR text: EDDV 200850Z 18012KT 150V230 CAVOK 25/14 Q1012 NOSIG
Conditions at: EDDV (HANNOVER , DE) observed 0850 UTC 20 July 2019
Temperature: 25.0°C (77°F)
Dewpoint: 14.0°C (57°F) [RH = 50%]
Pressure (altimeter): 29.88 inches Hg (1012.0 mb)
Winds: from the S (180 degrees) at 14 MPH (12 knots; 6.2 m/s)
Visibility: 6 or more miles (10+ km)
Ceiling: ceiling and visibility are OK
Clouds: unknown
Weather: no significant weather observed at this time

METAR text: EDDV 200820Z 17008KT 130V210 CAVOK 25/14 Q1012 NOSIG
Conditions at: EDDV (HANNOVER , DE) observed 0820 UTC 20 July 2019
Temperature: 25.0°C (77°F)
Dewpoint: 14.0°C (57°F) [RH = 50%]
Pressure (altimeter): 29.88 inches Hg (1012.0 mb)
Winds: from the S (170 degrees) at 9 MPH (8 knots; 4.1 m/s)
Visibility: 6 or more miles (10+ km)
Ceiling: ceiling and visibility are OK
Clouds: unknown
Weather: no significant weather observed at this time

METAR text: EDDV 200750Z 17007KT 140V210 CAVOK 24/14 Q1012 NOSIG
Conditions at: EDDV (HANNOVER , DE) observed 0750 UTC 20 July 2019
Temperature: 24.0°C (75°F)
Dewpoint: 14.0°C (57°F) [RH = 54%]
Pressure (altimeter): 29.88 inches Hg (1012.0 mb)
Winds: from the S (170 degrees) at 8 MPH (7 knots; 3.6 m/s)
Visibility: 6 or more miles (10+ km)
Ceiling: ceiling and visibility are OK
Clouds: unknown
Weather: no significant weather observed at this time

METAR text: EDDV 200720Z 16008KT 120V190 CAVOK 23/14 Q1012 NOSIG
Conditions at: EDDV (HANNOVER , DE) observed 0720 UTC 20 July 2019
Temperature: 23.0°C (73°F)
Dewpoint: 14.0°C (57°F) [RH = 57%]
Pressure (altimeter): 29.88 inches Hg (1012.0 mb)
Winds: from the SSE (160 degrees) at 9 MPH (8 knots; 4.1 m/s)
Visibility: 6 or more miles (10+ km)
Ceiling: ceiling and visibility are OK
Clouds: unknown
Weather: no significant weather observed at this time

METAR text: EDDV 200650Z 15006KT 090V180 CAVOK 21/14 Q1012 NOSIG
Conditions at: EDDV (HANNOVER , DE) observed 0650 UTC 20 July 2019
Temperature: 21.0°C (70°F)
Dewpoint: 14.0°C (57°F) [RH = 64%]
Pressure (altimeter): 29.88 inches Hg (1012.0 mb)
Winds: from the SSE (150 degrees) at 7 MPH (6 knots; 3.1 m/s)
Visibility: 6 or more miles (10+ km)
Ceiling: ceiling and visibility are OK
Clouds: unknown
Weather: no significant weather observed at this time

METAR text: EDDV 200620Z 15005KT 100V180 CAVOK 20/14 Q1013 NOSIG
Conditions at: EDDV (HANNOVER , DE) observed 0620 UTC 20 July 2019
Temperature: 20.0°C (68°F)
Dewpoint: 14.0°C (57°F) [RH = 68%]
Pressure (altimeter): 29.91 inches Hg (1013.0 mb)
Winds: from the SSE (150 degrees) at 6 MPH (5 knots; 2.6 m/s)
Visibility: 6 or more miles (10+ km)
Ceiling: ceiling and visibility are OK
Clouds: unknown
Weather: no significant weather observed at this time

METAR text: EDDV 200550Z 15004KT 080V200 CAVOK 19/14 Q1013 NOSIG
Conditions at: EDDV (HANNOVER , DE) observed 0550 UTC 20 July 2019
Temperature: 19.0°C (66°F)
Dewpoint: 14.0°C (57°F) [RH = 73%]
Pressure (altimeter): 29.91 inches Hg (1013.0 mb)
Winds: from the SSE (150 degrees) at 5 MPH (4 knots; 2.1 m/s)
Visibility: 6 or more miles (10+ km)
Ceiling: ceiling and visibility are OK
Clouds: unknown
Weather: no significant weather observed at this time

METAR text: EDDV 200520Z 13003KT 080V180 CAVOK 17/14 Q1013 NOSIG
Conditions at: EDDV (HANNOVER , DE) observed 0520 UTC 20 July 2019
Temperature: 17.0°C (63°F)
Dewpoint: 14.0°C (57°F) [RH = 82%]
Pressure (altimeter): 29.91 inches Hg (1013.0 mb)
Winds: from the SE (130 degrees) at 3 MPH (3 knots; 1.5 m/s)
Visibility: 6 or more miles (10+ km)
Ceiling: ceiling and visibility are OK
Clouds: unknown
Weather: no significant weather observed at this time

METAR text: EDDV 200450Z VRB02KT CAVOK 17/14 Q1013 NOSIG
Conditions at: EDDV (HANNOVER , DE) observed 0450 UTC 20 July 2019
Temperature: 17.0°C (63°F)
Dewpoint: 14.0°C (57°F) [RH = 82%]
Pressure (altimeter): 29.91 inches Hg (1013.0 mb)
Winds: variable direction winds at 2 MPH (2 knots; 1.0 m/s)
Visibility: 6 or more miles (10+ km)
Ceiling: ceiling and visibility are OK
Clouds: unknown
Weather: no significant weather observed at this time

METAR text: EDDV 200420Z 12003KT 070V160 CAVOK 16/13 Q1013 NOSIG
Conditions at: EDDV (HANNOVER , DE) observed 0420 UTC 20 July 2019
Temperature: 16.0°C (61°F)
Dewpoint: 13.0°C (55°F) [RH = 82%]
Pressure (altimeter): 29.91 inches Hg (1013.0 mb)
Winds: from the ESE (120 degrees) at 3 MPH (3 knots; 1.5 m/s)
Visibility: 6 or more miles (10+ km)
Ceiling: ceiling and visibility are OK
Clouds: unknown
Weather: no significant weather observed at this time

METAR text: EDDV 200350Z 11003KT 080V140 CAVOK 16/13 Q1013 NOSIG
Conditions at: EDDV (HANNOVER , DE) observed 0350 UTC 20 July 2019
Temperature: 16.0°C (61°F)
Dewpoint: 13.0°C (55°F) [RH = 82%]
Pressure (altimeter): 29.91 inches Hg (1013.0 mb)
Winds: from the ESE (110 degrees) at 3 MPH (3 knots; 1.5 m/s)
Visibility: 6 or more miles (10+ km)
Ceiling: ceiling and visibility are OK
Clouds: unknown
Weather: no significant weather observed at this time

METAR text: EDDV 200320Z 11002KT CAVOK 15/13 Q1013
Conditions at: EDDV (HANNOVER , DE) observed 0320 UTC 20 July 2019
Temperature: 15.0°C (59°F)
Dewpoint: 13.0°C (55°F) [RH = 88%]
Pressure (altimeter): 29.91 inches Hg (1013.0 mb)
Winds: from the ESE (110 degrees) at 2 MPH (2 knots; 1.0 m/s)
Visibility: 6 or more miles (10+ km)
Ceiling: ceiling and visibility are OK
Clouds: unknown
Weather: no significant weather observed at this time

METAR text: EDDV 200250Z 10004KT CAVOK 15/13 Q1013
Conditions at: EDDV (HANNOVER , DE) observed 0250 UTC 20 July 2019
Temperature: 15.0°C (59°F)
Dewpoint: 13.0°C (55°F) [RH = 88%]
Pressure (altimeter): 29.91 inches Hg (1013.0 mb)
Winds: from the E (100 degrees) at 5 MPH (4 knots; 2.1 m/s)
Visibility: 6 or more miles (10+ km)
Ceiling: ceiling and visibility are OK
Clouds: unknown
Weather: no significant weather observed at this time

METAR text: EDDV 200220Z 11004KT CAVOK 15/13 Q1013
Conditions at: EDDV (HANNOVER , DE) observed 0220 UTC 20 July 2019
Temperature: 15.0°C (59°F)
Dewpoint: 13.0°C (55°F) [RH = 88%]
Pressure (altimeter): 29.91 inches Hg (1013.0 mb)
Winds: from the ESE (110 degrees) at 5 MPH (4 knots; 2.1 m/s)
Visibility: 6 or more miles (10+ km)
Ceiling: ceiling and visibility are OK
Clouds: unknown
Weather: no significant weather observed at this time

METAR text: EDDV 200150Z 11003KT 080V170 CAVOK 15/13 Q1013
Conditions at: EDDV (HANNOVER , DE) observed 0150 UTC 20 July 2019
Temperature: 15.0°C (59°F)
Dewpoint: 13.0°C (55°F) [RH = 88%]
Pressure (altimeter): 29.91 inches Hg (1013.0 mb)
Winds: from the ESE (110 degrees) at 3 MPH (3 knots; 1.5 m/s)
Visibility: 6 or more miles (10+ km)
Ceiling: ceiling and visibility are OK
Clouds: unknown
Weather: no significant weather observed at this time

METAR text: EDDV 200120Z 10005KT CAVOK 15/13 Q1013
Conditions at: EDDV (HANNOVER , DE) observed 0120 UTC 20 July 2019
Temperature: 15.0°C (59°F)
Dewpoint: 13.0°C (55°F) [RH = 88%]
Pressure (altimeter): 29.91 inches Hg (1013.0 mb)
Winds: from the E (100 degrees) at 6 MPH (5 knots; 2.6 m/s)
Visibility: 6 or more miles (10+ km)
Ceiling: ceiling and visibility are OK
Clouds: unknown
Weather: no significant weather observed at this time

METAR text: EDDV 200050Z 08005KT CAVOK 15/13 Q1013
Conditions at: EDDV (HANNOVER , DE) observed 0050 UTC 20 July 2019
Temperature: 15.0°C (59°F)
Dewpoint: 13.0°C (55°F) [RH = 88%]
Pressure (altimeter): 29.91 inches Hg (1013.0 mb)
Winds: from the E (80 degrees) at 6 MPH (5 knots; 2.6 m/s)
Visibility: 6 or more miles (10+ km)
Ceiling: ceiling and visibility are OK
Clouds: unknown
Weather: no significant weather observed at this time

METAR text: EDDV 200020Z 09004KT CAVOK 16/13 Q1014
Conditions at: EDDV (HANNOVER , DE) observed 0020 UTC 20 July 2019
Temperature: 16.0°C (61°F)
Dewpoint: 13.0°C (55°F) [RH = 82%]
Pressure (altimeter): 29.94 inches Hg (1014.0 mb)
Winds: from the E (90 degrees) at 5 MPH (4 knots; 2.1 m/s)
Visibility: 6 or more miles (10+ km)
Ceiling: ceiling and visibility are OK
Clouds: unknown
Weather: no significant weather observed at this time

METAR text: EDDV 192350Z 15002KT CAVOK 17/13 Q1014
Conditions at: EDDV (HANNOVER , DE) observed 2350 UTC 19 July 2019
Temperature: 17.0°C (63°F)
Dewpoint: 13.0°C (55°F) [RH = 77%]
Pressure (altimeter): 29.94 inches Hg (1014.0 mb)
Winds: from the SSE (150 degrees) at 2 MPH (2 knots; 1.0 m/s)
Visibility: 6 or more miles (10+ km)
Ceiling: ceiling and visibility are OK
Clouds: unknown
Weather: no significant weather observed at this time

METAR text: EDDV 192320Z VRB02KT CAVOK 18/13 Q1014
Conditions at: EDDV (HANNOVER , DE) observed 2320 UTC 19 July 2019
Temperature: 18.0°C (64°F)
Dewpoint: 13.0°C (55°F) [RH = 73%]
Pressure (altimeter): 29.94 inches Hg (1014.0 mb)
Winds: variable direction winds at 2 MPH (2 knots; 1.0 m/s)
Visibility: 6 or more miles (10+ km)
Ceiling: ceiling and visibility are OK
Clouds: unknown
Weather: no significant weather observed at this time

METAR text: EDDV 192250Z 15003KT CAVOK 18/13 Q1014
Conditions at: EDDV (HANNOVER , DE) observed 2250 UTC 19 July 2019
Temperature: 18.0°C (64°F)
Dewpoint: 13.0°C (55°F) [RH = 73%]
Pressure (altimeter): 29.94 inches Hg (1014.0 mb)
Winds: from the SSE (150 degrees) at 3 MPH (3 knots; 1.5 m/s)
Visibility: 6 or more miles (10+ km)
Ceiling: ceiling and visibility are OK
Clouds: unknown
Weather: no significant weather observed at this time

METAR text: EDDV 192220Z 12002KT CAVOK 19/13 Q1014
Conditions at: EDDV (HANNOVER , DE) observed 2220 UTC 19 July 2019
Temperature: 19.0°C (66°F)
Dewpoint: 13.0°C (55°F) [RH = 68%]
Pressure (altimeter): 29.94 inches Hg (1014.0 mb)
Winds: from the ESE (120 degrees) at 2 MPH (2 knots; 1.0 m/s)
Visibility: 6 or more miles (10+ km)
Ceiling: ceiling and visibility are OK
Clouds: unknown
Weather: no significant weather observed at this time

METAR text: EDDV 192150Z VRB01KT CAVOK 18/13 Q1014
Conditions at: EDDV (HANNOVER , DE) observed 2150 UTC 19 July 2019
Temperature: 18.0°C (64°F)
Dewpoint: 13.0°C (55°F) [RH = 73%]
Pressure (altimeter): 29.94 inches Hg (1014.0 mb)
Winds: variable direction winds at 1 MPH (1 knots; 0.5 m/s)
Visibility: 6 or more miles (10+ km)
Ceiling: ceiling and visibility are OK
Clouds: unknown
Weather: no significant weather observed at this time

METAR text: EDDV 192120Z VRB01KT CAVOK 18/13 Q1014
Conditions at: EDDV (HANNOVER , DE) observed 2120 UTC 19 July 2019
Temperature: 18.0°C (64°F)
Dewpoint: 13.0°C (55°F) [RH = 73%]
Pressure (altimeter): 29.94 inches Hg (1014.0 mb)
Winds: variable direction winds at 1 MPH (1 knots; 0.5 m/s)
Visibility: 6 or more miles (10+ km)
Ceiling: ceiling and visibility are OK
Clouds: unknown
Weather: no significant weather observed at this time

METAR text: EDDV 192050Z 08002KT CAVOK 18/13 Q1014 NOSIG
Conditions at: EDDV (HANNOVER , DE) observed 2050 UTC 19 July 2019
Temperature: 18.0°C (64°F)
Dewpoint: 13.0°C (55°F) [RH = 73%]
Pressure (altimeter): 29.94 inches Hg (1014.0 mb)
Winds: from the E (80 degrees) at 2 MPH (2 knots; 1.0 m/s)
Visibility: 6 or more miles (10+ km)
Ceiling: ceiling and visibility are OK
Clouds: unknown
Weather: no significant weather observed at this time

METAR text: EDDV 192020Z 13001KT CAVOK 20/13 Q1014 NOSIG
Conditions at: EDDV (HANNOVER , DE) observed 2020 UTC 19 July 2019
Temperature: 20.0°C (68°F)
Dewpoint: 13.0°C (55°F) [RH = 64%]
Pressure (altimeter): 29.94 inches Hg (1014.0 mb)
Winds: from the SE (130 degrees) at 1 MPH (1 knots; 0.5 m/s)
Visibility: 6 or more miles (10+ km)
Ceiling: ceiling and visibility are OK
Clouds: unknown
Weather: no significant weather observed at this time

METAR text: EDDV 191950Z VRB01KT CAVOK 21/13 Q1014 NOSIG
Conditions at: EDDV (HANNOVER , DE) observed 1950 UTC 19 July 2019
Temperature: 21.0°C (70°F)
Dewpoint: 13.0°C (55°F) [RH = 60%]
Pressure (altimeter): 29.94 inches Hg (1014.0 mb)
Winds: variable direction winds at 1 MPH (1 knots; 0.5 m/s)
Visibility: 6 or more miles (10+ km)
Ceiling: ceiling and visibility are OK
Clouds: unknown
Weather: no significant weather observed at this time

METAR text: EDDV 191920Z 18003KT CAVOK 22/13 Q1013 NOSIG
Conditions at: EDDV (HANNOVER , DE) observed 1920 UTC 19 July 2019
Temperature: 22.0°C (72°F)
Dewpoint: 13.0°C (55°F) [RH = 57%]
Pressure (altimeter): 29.91 inches Hg (1013.0 mb)
Winds: from the S (180 degrees) at 3 MPH (3 knots; 1.5 m/s)
Visibility: 6 or more miles (10+ km)
Ceiling: ceiling and visibility are OK
Clouds: unknown
Weather: no significant weather observed at this time

METAR text: EDDV 191850Z 18003KT CAVOK 22/13 Q1013 NOSIG
Conditions at: EDDV (HANNOVER , DE) observed 1850 UTC 19 July 2019
Temperature: 22.0°C (72°F)
Dewpoint: 13.0°C (55°F) [RH = 57%]
Pressure (altimeter): 29.91 inches Hg (1013.0 mb)
Winds: from the S (180 degrees) at 3 MPH (3 knots; 1.5 m/s)
Visibility: 6 or more miles (10+ km)
Ceiling: ceiling and visibility are OK
Clouds: unknown
Weather: no significant weather observed at this time

METAR text: EDDV 191820Z VRB02KT CAVOK 23/12 Q1013 NOSIG
Conditions at: EDDV (HANNOVER , DE) observed 1820 UTC 19 July 2019
Temperature: 23.0°C (73°F)
Dewpoint: 12.0°C (54°F) [RH = 50%]
Pressure (altimeter): 29.91 inches Hg (1013.0 mb)
Winds: variable direction winds at 2 MPH (2 knots; 1.0 m/s)
Visibility: 6 or more miles (10+ km)
Ceiling: ceiling and visibility are OK
Clouds: unknown
Weather: no significant weather observed at this time

METAR text: EDDV 191750Z 22003KT 190V270 CAVOK 23/12 Q1013 NOSIG
Conditions at: EDDV (HANNOVER , DE) observed 1750 UTC 19 July 2019
Temperature: 23.0°C (73°F)
Dewpoint: 12.0°C (54°F) [RH = 50%]
Pressure (altimeter): 29.91 inches Hg (1013.0 mb)
Winds: from the SW (220 degrees) at 3 MPH (3 knots; 1.5 m/s)
Visibility: 6 or more miles (10+ km)
Ceiling: ceiling and visibility are OK
Clouds: unknown
Weather: no significant weather observed at this time

METAR text: EDDV 191720Z 25004KT 220V290 CAVOK 24/12 Q1013 NOSIG
Conditions at: EDDV (HANNOVER , DE) observed 1720 UTC 19 July 2019
Temperature: 24.0°C (75°F)
Dewpoint: 12.0°C (54°F) [RH = 47%]
Pressure (altimeter): 29.91 inches Hg (1013.0 mb)
Winds: from the WSW (250 degrees) at 5 MPH (4 knots; 2.1 m/s)
Visibility: 6 or more miles (10+ km)
Ceiling: ceiling and visibility are OK
Clouds: unknown
Weather: no significant weather observed at this time

METAR text: EDDV 191650Z 24006KT CAVOK 24/11 Q1013 NOSIG
Conditions at: EDDV (HANNOVER , DE) observed 1650 UTC 19 July 2019
Temperature: 24.0°C (75°F)
Dewpoint: 11.0°C (52°F) [RH = 44%]
Pressure (altimeter): 29.91 inches Hg (1013.0 mb)
Winds: from the WSW (240 degrees) at 7 MPH (6 knots; 3.1 m/s)
Visibility: 6 or more miles (10+ km)
Ceiling: ceiling and visibility are OK
Clouds: unknown
Weather: no significant weather observed at this time

METAR text: EDDV 191620Z 30005KT 220V340 CAVOK 25/11 Q1013 NOSIG
Conditions at: EDDV (HANNOVER , DE) observed 1620 UTC 19 July 2019
Temperature: 25.0°C (77°F)
Dewpoint: 11.0°C (52°F) [RH = 41%]
Pressure (altimeter): 29.91 inches Hg (1013.0 mb)
Winds: from the WNW (300 degrees) at 6 MPH (5 knots; 2.6 m/s)
Visibility: 6 or more miles (10+ km)
Ceiling: ceiling and visibility are OK
Clouds: unknown
Weather: no significant weather observed at this time

METAR text: EDDV 191550Z 31007KT 270V350 CAVOK 24/11 Q1013 NOSIG
Conditions at: EDDV (HANNOVER , DE) observed 1550 UTC 19 July 2019
Temperature: 24.0°C (75°F)
Dewpoint: 11.0°C (52°F) [RH = 44%]
Pressure (altimeter): 29.91 inches Hg (1013.0 mb)
Winds: from the NW (310 degrees) at 8 MPH (7 knots; 3.6 m/s)
Visibility: 6 or more miles (10+ km)
Ceiling: ceiling and visibility are OK
Clouds: unknown
Weather: no significant weather observed at this time

METAR text: EDDV 191520Z 26005KT 210V350 CAVOK 25/11 Q1013 NOSIG
Conditions at: EDDV (HANNOVER , DE) observed 1520 UTC 19 July 2019
Temperature: 25.0°C (77°F)
Dewpoint: 11.0°C (52°F) [RH = 41%]
Pressure (altimeter): 29.91 inches Hg (1013.0 mb)
Winds: from the W (260 degrees) at 6 MPH (5 knots; 2.6 m/s)
Visibility: 6 or more miles (10+ km)
Ceiling: ceiling and visibility are OK
Clouds: unknown
Weather: no significant weather observed at this time

METAR text: EDDV 191450Z 25008KT 230V290 CAVOK 25/11 Q1013 NOSIG
Conditions at: EDDV (HANNOVER , DE) observed 1450 UTC 19 July 2019
Temperature: 25.0°C (77°F)
Dewpoint: 11.0°C (52°F) [RH = 41%]
Pressure (altimeter): 29.91 inches Hg (1013.0 mb)
Winds: from the WSW (250 degrees) at 9 MPH (8 knots; 4.1 m/s)
Visibility: 6 or more miles (10+ km)
Ceiling: ceiling and visibility are OK
Clouds: unknown
Weather: no significant weather observed at this time

METAR text: EDDV 191420Z 27007KT 220V300 9999 FEW040 25/11 Q1013 NOSIG
Conditions at: EDDV (HANNOVER , DE) observed 1420 UTC 19 July 2019
Temperature: 25.0°C (77°F)
Dewpoint: 11.0°C (52°F) [RH = 41%]
Pressure (altimeter): 29.91 inches Hg (1013.0 mb)
Winds: from the W (270 degrees) at 8 MPH (7 knots; 3.6 m/s)
Visibility: 6 or more miles (10+ km)
Ceiling: at least 12,000 feet AGL
Clouds: few clouds at 4000 feet AGL
Weather: no significant weather observed at this time

METAR text: EDDV 191350Z 30006KT 260V060 9999 FEW040 26/12 Q1013 NOSIG
Conditions at: EDDV (HANNOVER , DE) observed 1350 UTC 19 July 2019
Temperature: 26.0°C (79°F)
Dewpoint: 12.0°C (54°F) [RH = 42%]
Pressure (altimeter): 29.91 inches Hg (1013.0 mb)
Winds: from the WNW (300 degrees) at 7 MPH (6 knots; 3.1 m/s)
Visibility: 6 or more miles (10+ km)
Ceiling: at least 12,000 feet AGL
Clouds: few clouds at 4000 feet AGL
Weather: no significant weather observed at this time

METAR text: EDDV 191320Z 32007KT 270V030 9999 FEW040 25/12 Q1013 NOSIG
Conditions at: EDDV (HANNOVER , DE) observed 1320 UTC 19 July 2019
Temperature: 25.0°C (77°F)
Dewpoint: 12.0°C (54°F) [RH = 44%]
Pressure (altimeter): 29.91 inches Hg (1013.0 mb)
Winds: from the NW (320 degrees) at 8 MPH (7 knots; 3.6 m/s)
Visibility: 6 or more miles (10+ km)
Ceiling: at least 12,000 feet AGL
Clouds: few clouds at 4000 feet AGL
Weather: no significant weather observed at this time

METAR text: EDDV 191250Z 31005KT 260V360 9999 FEW040 23/13 Q1013 NOSIG
Conditions at: EDDV (HANNOVER , DE) observed 1250 UTC 19 July 2019
Temperature: 23.0°C (73°F)
Dewpoint: 13.0°C (55°F) [RH = 53%]
Pressure (altimeter): 29.91 inches Hg (1013.0 mb)
Winds: from the NW (310 degrees) at 6 MPH (5 knots; 2.6 m/s)
Visibility: 6 or more miles (10+ km)
Ceiling: at least 12,000 feet AGL
Clouds: few clouds at 4000 feet AGL
Weather: no significant weather observed at this time

METAR text: EDDV 191220Z 32011KT 9999 SCT040 23/13 Q1013 NOSIG
Conditions at: EDDV (HANNOVER , DE) observed 1220 UTC 19 July 2019
Temperature: 23.0°C (73°F)
Dewpoint: 13.0°C (55°F) [RH = 53%]
Pressure (altimeter): 29.91 inches Hg (1013.0 mb)
Winds: from the NW (320 degrees) at 13 MPH (11 knots; 5.7 m/s)
Visibility: 6 or more miles (10+ km)
Ceiling: at least 12,000 feet AGL
Clouds: scattered clouds at 4000 feet AGL
Weather: no significant weather observed at this time

METAR text: EDDV 191150Z 26008KT 230V310 9999 SCT040 23/13 Q1013 NOSIG
Conditions at: EDDV (HANNOVER , DE) observed 1150 UTC 19 July 2019
Temperature: 23.0°C (73°F)
Dewpoint: 13.0°C (55°F) [RH = 53%]
Pressure (altimeter): 29.91 inches Hg (1013.0 mb)
Winds: from the W (260 degrees) at 9 MPH (8 knots; 4.1 m/s)
Visibility: 6 or more miles (10+ km)
Ceiling: at least 12,000 feet AGL
Clouds: scattered clouds at 4000 feet AGL
Weather: no significant weather observed at this time

METAR text: EDDV 191120Z 28006KT 220V320 9999 SCT032 23/13 Q1013 NOSIG
Conditions at: EDDV (HANNOVER , DE) observed 1120 UTC 19 July 2019
Temperature: 23.0°C (73°F)
Dewpoint: 13.0°C (55°F) [RH = 53%]
Pressure (altimeter): 29.91 inches Hg (1013.0 mb)
Winds: from the W (280 degrees) at 7 MPH (6 knots; 3.1 m/s)
Visibility: 6 or more miles (10+ km)
Ceiling: at least 12,000 feet AGL
Clouds: scattered clouds at 3200 feet AGL
Weather: no significant weather observed at this time

METAR text: EDDV 191050Z 28006KT 250V310 9999 SCT032 21/14 Q1013 NOSIG
Conditions at: EDDV (HANNOVER , DE) observed 1050 UTC 19 July 2019
Temperature: 21.0°C (70°F)
Dewpoint: 14.0°C (57°F) [RH = 64%]
Pressure (altimeter): 29.91 inches Hg (1013.0 mb)
Winds: from the W (280 degrees) at 7 MPH (6 knots; 3.1 m/s)
Visibility: 6 or more miles (10+ km)
Ceiling: at least 12,000 feet AGL
Clouds: scattered clouds at 3200 feet AGL
Weather: no significant weather observed at this time

METAR text: EDDV 191020Z 28007KT 250V320 9999 SCT030 22/14 Q1013 NOSIG
Conditions at: EDDV (HANNOVER , DE) observed 1020 UTC 19 July 2019
Temperature: 22.0°C (72°F)
Dewpoint: 14.0°C (57°F) [RH = 60%]
Pressure (altimeter): 29.91 inches Hg (1013.0 mb)
Winds: from the W (280 degrees) at 8 MPH (7 knots; 3.6 m/s)
Visibility: 6 or more miles (10+ km)
Ceiling: at least 12,000 feet AGL
Clouds: scattered clouds at 3000 feet AGL
Weather: no significant weather observed at this time

METAR text: EDDV 190950Z 26008KT 220V310 9999 SCT030 21/14 Q1013 NOSIG
Conditions at: EDDV (HANNOVER , DE) observed 0950 UTC 19 July 2019
Temperature: 21.0°C (70°F)
Dewpoint: 14.0°C (57°F) [RH = 64%]
Pressure (altimeter): 29.91 inches Hg (1013.0 mb)
Winds: from the W (260 degrees) at 9 MPH (8 knots; 4.1 m/s)
Visibility: 6 or more miles (10+ km)
Ceiling: at least 12,000 feet AGL
Clouds: scattered clouds at 3000 feet AGL
Weather: no significant weather observed at this time

METAR text: EDDV 190920Z 28007KT 240V310 9999 SCT026 21/14 Q1013 NOSIG
Conditions at: EDDV (HANNOVER , DE) observed 0920 UTC 19 July 2019
Temperature: 21.0°C (70°F)
Dewpoint: 14.0°C (57°F) [RH = 64%]
Pressure (altimeter): 29.91 inches Hg (1013.0 mb)
Winds: from the W (280 degrees) at 8 MPH (7 knots; 3.6 m/s)
Visibility: 6 or more miles (10+ km)
Ceiling: at least 12,000 feet AGL
Clouds: scattered clouds at 2600 feet AGL
Weather: no significant weather observed at this time

METAR text: EDDV 190850Z 26007KT 220V310 9999 SCT024 21/14 Q1013 NOSIG
Conditions at: EDDV (HANNOVER , DE) observed 0850 UTC 19 July 2019
Temperature: 21.0°C (70°F)
Dewpoint: 14.0°C (57°F) [RH = 64%]
Pressure (altimeter): 29.91 inches Hg (1013.0 mb)
Winds: from the W (260 degrees) at 8 MPH (7 knots; 3.6 m/s)
Visibility: 6 or more miles (10+ km)
Ceiling: at least 12,000 feet AGL
Clouds: scattered clouds at 2400 feet AGL
Weather: no significant weather observed at this time

METAR text: EDDV 190820Z 29007KT 240V320 9999 SCT024 21/15 Q1013 NOSIG
Conditions at: EDDV (HANNOVER , DE) observed 0820 UTC 19 July 2019
Temperature: 21.0°C (70°F)
Dewpoint: 15.0°C (59°F) [RH = 69%]
Pressure (altimeter): 29.91 inches Hg (1013.0 mb)
Winds: from the WNW (290 degrees) at 8 MPH (7 knots; 3.6 m/s)
Visibility: 6 or more miles (10+ km)
Ceiling: at least 12,000 feet AGL
Clouds: scattered clouds at 2400 feet AGL
Weather: no significant weather observed at this time

METAR text: EDDV 190750Z 27008KT 240V310 9999 SCT022 SCT042 20/14 Q1013 NOSIG
Conditions at: EDDV (HANNOVER , DE) observed 0750 UTC 19 July 2019
Temperature: 20.0°C (68°F)
Dewpoint: 14.0°C (57°F) [RH = 68%]
Pressure (altimeter): 29.91 inches Hg (1013.0 mb)
Winds: from the W (270 degrees) at 9 MPH (8 knots; 4.1 m/s)
Visibility: 6 or more miles (10+ km)
Ceiling: at least 12,000 feet AGL
Clouds: scattered clouds at 2200 feet AGL
scattered clouds at 4200 feet AGL
Weather: no significant weather observed at this time

METAR text: EDDV 190720Z 27008KT 9999 FEW018 BKN048 19/14 Q1013 NOSIG
Conditions at: EDDV (HANNOVER , DE) observed 0720 UTC 19 July 2019
Temperature: 19.0°C (66°F)
Dewpoint: 14.0°C (57°F) [RH = 73%]
Pressure (altimeter): 29.91 inches Hg (1013.0 mb)
Winds: from the W (270 degrees) at 9 MPH (8 knots; 4.1 m/s)
Visibility: 6 or more miles (10+ km)
Ceiling: 4800 feet AGL
Clouds: few clouds at 1800 feet AGL
broken clouds at 4800 feet AGL
Weather: no significant weather observed at this time

METAR text: EDDV 190650Z 26007KT 240V310 9999 FEW018 SCT030 BKN048 19/15 Q1013 NOSIG
Conditions at: EDDV (HANNOVER , DE) observed 0650 UTC 19 July 2019
Temperature: 19.0°C (66°F)
Dewpoint: 15.0°C (59°F) [RH = 78%]
Pressure (altimeter): 29.91 inches Hg (1013.0 mb)
Winds: from the W (260 degrees) at 8 MPH (7 knots; 3.6 m/s)
Visibility: 6 or more miles (10+ km)
Ceiling: 4800 feet AGL
Clouds: few clouds at 1800 feet AGL
scattered clouds at 3000 feet AGL
broken clouds at 4800 feet AGL
Weather: no significant weather observed at this time

METAR text: EDDV 190620Z 25009KT 230V290 9999 FEW020 SCT040 19/15 Q1013 NOSIG
Conditions at: EDDV (HANNOVER , DE) observed 0620 UTC 19 July 2019
Temperature: 19.0°C (66°F)
Dewpoint: 15.0°C (59°F) [RH = 78%]
Pressure (altimeter): 29.91 inches Hg (1013.0 mb)
Winds: from the WSW (250 degrees) at 10 MPH (9 knots; 4.6 m/s)
Visibility: 6 or more miles (10+ km)
Ceiling: at least 12,000 feet AGL
Clouds: few clouds at 2000 feet AGL
scattered clouds at 4000 feet AGL
Weather: no significant weather observed at this time

METAR text: EDDV 190550Z 25009KT 220V280 CAVOK 19/14 Q1012 NOSIG
Conditions at: EDDV (HANNOVER , DE) observed 0550 UTC 19 July 2019
Temperature: 19.0°C (66°F)
Dewpoint: 14.0°C (57°F) [RH = 73%]
Pressure (altimeter): 29.88 inches Hg (1012.0 mb)
Winds: from the WSW (250 degrees) at 10 MPH (9 knots; 4.6 m/s)
Visibility: 6 or more miles (10+ km)
Ceiling: ceiling and visibility are OK
Clouds: unknown
Weather: no significant weather observed at this time

METAR text: EDDV 190520Z 24007KT 9999 FEW035 18/14 Q1012 NOSIG
Conditions at: EDDV (HANNOVER , DE) observed 0520 UTC 19 July 2019
Temperature: 18.0°C (64°F)
Dewpoint: 14.0°C (57°F) [RH = 77%]
Pressure (altimeter): 29.88 inches Hg (1012.0 mb)
Winds: from the WSW (240 degrees) at 8 MPH (7 knots; 3.6 m/s)
Visibility: 6 or more miles (10+ km)
Ceiling: at least 12,000 feet AGL
Clouds: few clouds at 3500 feet AGL
Weather: no significant weather observed at this time

METAR text: EDDV 190450Z 23004KT 190V260 9999 FEW035 18/14 Q1012 NOSIG
Conditions at: EDDV (HANNOVER , DE) observed 0450 UTC 19 July 2019
Temperature: 18.0°C (64°F)
Dewpoint: 14.0°C (57°F) [RH = 77%]
Pressure (altimeter): 29.88 inches Hg (1012.0 mb)
Winds: from the SW (230 degrees) at 5 MPH (4 knots; 2.1 m/s)
Visibility: 6 or more miles (10+ km)
Ceiling: at least 12,000 feet AGL
Clouds: few clouds at 3500 feet AGL
Weather: no significant weather observed at this time

METAR text: EDDV 190420Z 24003KT 9999 FEW035 17/14 Q1012 NOSIG
Conditions at: EDDV (HANNOVER , DE) observed 0420 UTC 19 July 2019
Temperature: 17.0°C (63°F)
Dewpoint: 14.0°C (57°F) [RH = 82%]
Pressure (altimeter): 29.88 inches Hg (1012.0 mb)
Winds: from the WSW (240 degrees) at 3 MPH (3 knots; 1.5 m/s)
Visibility: 6 or more miles (10+ km)
Ceiling: at least 12,000 feet AGL
Clouds: few clouds at 3500 feet AGL
Weather: no significant weather observed at this time

METAR text: EDDV 190350Z 26004KT 9999 FEW037 BKN045 18/14 Q1012 NOSIG
Conditions at: EDDV (HANNOVER , DE) observed 0350 UTC 19 July 2019
Temperature: 18.0°C (64°F)
Dewpoint: 14.0°C (57°F) [RH = 77%]
Pressure (altimeter): 29.88 inches Hg (1012.0 mb)
Winds: from the W (260 degrees) at 5 MPH (4 knots; 2.1 m/s)
Visibility: 6 or more miles (10+ km)
Ceiling: 4500 feet AGL
Clouds: few clouds at 3700 feet AGL
broken clouds at 4500 feet AGL
Weather: no significant weather observed at this time

METAR text: EDDV 190320Z 25004KT 9999 FEW038 BKN044 18/14 Q1012
Conditions at: EDDV (HANNOVER , DE) observed 0320 UTC 19 July 2019
Temperature: 18.0°C (64°F)
Dewpoint: 14.0°C (57°F) [RH = 77%]
Pressure (altimeter): 29.88 inches Hg (1012.0 mb)
Winds: from the WSW (250 degrees) at 5 MPH (4 knots; 2.1 m/s)
Visibility: 6 or more miles (10+ km)
Ceiling: 4400 feet AGL
Clouds: few clouds at 3800 feet AGL
broken clouds at 4400 feet AGL
Weather: no significant weather observed at this time

METAR text: EDDV 190250Z 25003KT 9999 FEW040 BKN048 17/14 Q1012
Conditions at: EDDV (HANNOVER , DE) observed 0250 UTC 19 July 2019
Temperature: 17.0°C (63°F)
Dewpoint: 14.0°C (57°F) [RH = 82%]
Pressure (altimeter): 29.88 inches Hg (1012.0 mb)
Winds: from the WSW (250 degrees) at 3 MPH (3 knots; 1.5 m/s)
Visibility: 6 or more miles (10+ km)
Ceiling: 4800 feet AGL
Clouds: few clouds at 4000 feet AGL
broken clouds at 4800 feet AGL
Weather: no significant weather observed at this time

Forecast for: EDDV (HANNOVER , DE)
Text: TAF EDDV 201100Z 2012/2112 19010KT CAVOK
Forecast period: 1200 UTC 20 July 2019 to 0500 UTC 21 July 2019
Forecast type: FROM: standard forecast or significant change
Winds: from the S (190 degrees) at 12 MPH (10 knots; 5.1 m/s)
Visibility: 6 or more miles 10+ km)
Ceiling: unknown
Clouds: missing
Weather: NSW  (no significant weather)
Text: TEMPO 2012/2013 21015G25KT SCT050CB
Forecast period: 1200 to 1300 UTC 20 July 2019
Forecast type: TEMPORARY: The following changes expected for less than half the time period
Winds: from the SSW (210 degrees) at 17 MPH (15 knots; 7.7 m/s)
gusting to 29 MPH (25 knots; 12.9 m/s)
Visibility: missing
Ceiling: at least 12,000 feet AGL
Clouds: scattered clouds at 5000 feet AGL
Weather: no significant weather forecast for this period
Text: TEMPO 2013/2022 22015G30KT 4000 TSRA FEW012 BKN040CB
Forecast period: 1300 to 2200 UTC 20 July 2019
Forecast type: TEMPORARY: The following changes expected for less than half the time period
Winds: from the SW (220 degrees) at 17 MPH (15 knots; 7.7 m/s)
gusting to 34 MPH (30 knots; 15.4 m/s)
Visibility: 2.49 miles (4.01 km)
Ceiling: 4000 feet AGL
Clouds: few clouds at 1200 feet AGL
broken clouds at 4000 feet AGL
Weather: TSRA  (rain associated with thunderstorm(s))
Text: PROB30
Forecast period: 1400 to 1700 UTC 20 July 2019
Forecast type: TEMPORARY: The following changes expected for less than half the time period
Winds: from the SW (220 degrees) at 29 MPH (25 knots; 12.9 m/s)
gusting to 57 MPH (50 knots; 25.7 m/s)
Visibility: 1.24 miles (2.00 km)
Ceiling: unknown
Clouds: missing
Weather: +TSRA +TSGR  (heavy rain associated with thunderstorm(s), unknown weather)
Text: TEMPO 2014/2017 22025G50KT 2000 +TSRAGR
Forecast period: 1600 to 1800 UTC 20 July 2019
Forecast type: TEMPORARY: The following changes expected for less than half the time period
Winds: from the E (90 degrees) at 5 MPH (4 knots; 2.1 m/s)
Visibility: missing
Ceiling: unknown
Clouds: missing
Weather: no significant weather forecast for this period
Text: PROB30
Forecast period: 0500 to 1000 UTC 21 July 2019
Forecast type: BECOMING: Conditions expected to become as follows by 0600 UTC 21 July 2019
Winds: from the WSW (250 degrees) at 12 MPH (10 knots; 5.1 m/s)
Visibility: 6 or more miles 10+ km)
Ceiling: unknown
Clouds: missing
Weather: NSW  (no significant weather)
Text: TEMPO 2016/2018 09004KT
Forecast period: 1000 to 1200 UTC 21 July 2019
Forecast type: BECOMING: Conditions expected to become as follows by 1200 UTC 21 July 2019
Winds: from the WNW (290 degrees) at 17 MPH (15 knots; 7.7 m/s)
gusting to 29 MPH (25 knots; 12.9 m/s)
Visibility: 6 or more miles 10+ km)
Ceiling: unknown
Clouds: missing
Weather: NSW  (no significant weather)